Terminal Aerodrome Forecast
Issued by NWS Central Illinois

Home | Current Version | Previous Version | Text Only | Print | Product List | Glossary On
Versions: 1 2 3 4 5 6 7 8 9 10 11 12 13 14 15 16 17 18 19 20 21 22 23 24 25 26 27 28 29 30
808
FTUS43 KILX 300525
TAFSPI
TAF
KSPI 300525Z 3006/0106 07011KT P6SM OVC080
     FM300700 08012KT P6SM VCSH OVC040
     FM300900 09013KT 5SM -SHRA BR VCTS OVC020CB
     FM301400 11016G25KT 2SM -SHRA BR VCTS OVC008CB
     FM010200 09008KT P6SM VCSH BKN030=

USA.gov is the U.S. government's official web portal to all federal, state and local government web resources and services.